createdAt,value
2023-05-13T00:01:29.378Z,14.32
2023-05-13T00:06:32.210Z,14.22
2023-05-13T00:11:34.422Z,14.14
2023-05-13T00:16:36.028Z,14.14
2023-05-13T00:21:37.670Z,14.18
2023-05-13T00:26:39.255Z,14.06
2023-05-13T00:31:40.961Z,13.94
2023-05-13T00:36:43.599Z,13.83
2023-05-13T00:41:45.356Z,13.83
2023-05-13T00:46:47.085Z,13.72
2023-05-13T00:51:48.745Z,13.57
2023-05-13T00:56:54.377Z,13.64
2023-05-13T01:02:14.165Z,13.71
2023-05-13T01:07:24.437Z,13.57
2023-05-13T01:12:32.598Z,13.60
2023-05-13T01:17:46.420Z,13.44
2023-05-13T01:22:48.237Z,13.39
2023-05-13T01:27:50.815Z,13.32
2023-05-13T01:32:52.964Z,13.22
2023-05-13T01:37:57.025Z,13.17
2023-05-13T01:43:00.635Z,13.13
2023-05-13T01:48:02.470Z,13.02
2023-05-13T01:53:14.104Z,13.12
2023-05-13T01:58:16.206Z,13.08
2023-05-13T02:03:18.698Z,13.14
2023-05-13T02:08:21.737Z,13.12
2023-05-13T02:13:23.695Z,13.09
2023-05-13T02:18:25.532Z,13.10
2023-05-13T02:23:27.106Z,13.04
2023-05-13T02:28:30.491Z,12.94
2023-05-13T02:33:32.213Z,12.75
2023-05-13T02:38:33.925Z,12.81
2023-05-13T02:43:36.919Z,12.66
2023-05-13T02:48:40.903Z,12.60
2023-05-13T02:53:42.630Z,12.51
2023-05-13T02:58:44.767Z,12.50
2023-05-13T03:03:46.509Z,12.60
2023-05-13T03:08:48.301Z,12.59
2023-05-13T03:13:49.952Z,12.47
2023-05-13T03:18:51.630Z,12.33
2023-05-13T03:23:54.169Z,12.40
2023-05-13T03:28:55.925Z,12.21
2023-05-13T03:33:58.069Z,12.31
2023-05-13T03:38:59.847Z,12.29
2023-05-13T03:44:01.904Z,12.27
2023-05-13T03:49:03.807Z,12.08
2023-05-13T03:54:05.610Z,12.09
2023-05-13T03:59:07.529Z,12.12
2023-05-13T04:04:11.081Z,12.21
2023-05-13T04:09:12.707Z,12.25
2023-05-13T04:14:14.301Z,12.30
2023-05-13T04:19:21.291Z,12.42
2023-05-13T04:24:22.914Z,12.68
2023-05-13T04:29:24.488Z,12.94
2023-05-13T04:34:26.337Z,13.03
2023-05-13T04:39:28.013Z,13.03
2023-05-13T04:44:29.906Z,13.24
2023-05-13T04:49:31.666Z,13.41
2023-05-13T04:54:35.942Z,13.64
2023-05-13T04:59:37.687Z,13.80
2023-05-13T05:04:39.476Z,13.46
2023-05-13T05:09:46.397Z,13.85
2023-05-13T05:14:48.054Z,13.68
2023-05-13T05:19:50.589Z,14.13
2023-05-13T05:24:52.252Z,14.41
2023-05-13T05:29:53.862Z,14.27
2023-05-13T05:34:55.607Z,14.56
2023-05-13T05:39:57.351Z,14.63
2023-05-13T05:44:59.070Z,14.81
2023-05-13T05:50:00.730Z,14.88
2023-05-13T05:55:03.463Z,14.94
2023-05-13T06:00:06.287Z,15.14
2023-05-13T06:05:16.649Z,15.10
2023-05-13T06:10:19.792Z,15.46
2023-05-13T06:15:21.589Z,15.60
2023-05-13T06:20:23.700Z,15.62
2023-05-13T06:25:25.851Z,15.80
2023-05-13T06:30:27.518Z,15.98
2023-05-13T06:35:29.218Z,16.05
2023-05-13T06:40:30.989Z,16.25
2023-05-13T06:45:32.660Z,16.32
2023-05-13T06:50:34.673Z,16.52
2023-05-13T06:55:41.437Z,16.52
2023-05-13T07:00:43.314Z,16.83
2023-05-13T07:05:44.975Z,16.81
2023-05-13T07:10:46.636Z,16.89
2023-05-13T07:15:48.628Z,17.27
2023-05-13T07:20:50.493Z,17.21
2023-05-13T07:25:52.482Z,17.09
2023-05-13T07:30:54.257Z,17.26
2023-05-13T07:35:55.993Z,17.44
2023-05-13T07:40:57.677Z,17.39
2023-05-13T07:45:59.261Z,17.68
2023-05-13T07:51:00.929Z,17.78
2023-05-13T07:56:03.133Z,17.58
2023-05-13T08:01:05.211Z,18.01
2023-05-13T08:06:06.896Z,17.76
2023-05-13T08:11:08.454Z,18.08
2023-05-13T08:16:10.093Z,18.31
2023-05-13T08:21:11.737Z,18.24
2023-05-13T08:26:13.905Z,18.20
2023-05-13T08:31:15.532Z,18.31
2023-05-13T08:36:17.365Z,18.38
2023-05-13T08:41:21.710Z,18.28
2023-05-13T08:46:25.169Z,18.47
2023-05-13T08:51:26.942Z,18.39
2023-05-13T08:56:29.759Z,18.17
2023-05-13T09:01:31.838Z,18.25
2023-05-13T09:06:33.771Z,18.39
2023-05-13T09:11:35.459Z,18.25
2023-05-13T09:16:37.189Z,18.82
2023-05-13T09:21:39.543Z,18.87
2023-05-13T09:26:42.158Z,19.00
2023-05-13T09:31:45.133Z,19.02
2023-05-13T09:36:47.981Z,19.23
2023-05-13T09:41:50.863Z,19.31
2023-05-13T09:46:53.420Z,19.25
2023-05-13T09:51:55.077Z,19.29
2023-05-13T09:57:01.354Z,19.52
2023-05-13T10:02:05.571Z,19.50
2023-05-13T10:07:07.793Z,19.36
2023-05-13T10:12:09.909Z,19.16
2023-05-13T10:17:11.720Z,19.49
2023-05-13T10:22:14.342Z,19.66
2023-05-13T10:27:16.031Z,19.65
2023-05-13T10:32:17.933Z,19.74
2023-05-13T10:37:37.661Z,19.74
2023-05-13T10:42:44.455Z,19.62
2023-05-13T10:47:50.219Z,19.67
2023-05-13T10:52:56.038Z,19.87
2023-05-13T10:58:11.008Z,19.52
2023-05-13T11:03:30.008Z,19.16
2023-05-13T11:08:36.848Z,18.97
2023-05-13T11:13:38.503Z,18.94
2023-05-13T11:18:40.246Z,19.10
2023-05-13T11:23:51.766Z,19.09
2023-05-13T11:28:58.512Z,19.35
2023-05-13T11:34:07.279Z,19.02
2023-05-13T11:39:27.659Z,18.84
2023-05-13T11:44:29.285Z,18.85
2023-05-13T11:49:42.746Z,19.13
2023-05-13T11:54:44.351Z,19.11
2023-05-13T12:00:13.361Z,19.34
2023-05-13T12:05:14.957Z,19.27
2023-05-13T12:10:17.430Z,19.34
2023-05-13T12:15:20.256Z,19.71
2023-05-13T12:20:23.323Z,19.57
2023-05-13T12:25:45.412Z,19.64
2023-05-13T12:30:59.970Z,19.52
2023-05-13T12:36:26.104Z,19.50
2023-05-13T12:41:30.722Z,19.59
2023-05-13T12:46:32.735Z,19.19
2023-05-13T12:51:34.675Z,19.08
2023-05-13T12:56:36.440Z,19.21
2023-05-13T13:01:38.110Z,19.31
2023-05-13T13:06:39.832Z,19.30
2023-05-13T13:11:41.629Z,19.31
2023-05-13T13:16:43.644Z,19.22
2023-05-13T13:21:45.316Z,19.17
2023-05-13T13:26:46.921Z,19.19
2023-05-13T13:31:48.622Z,19.46
2023-05-13T13:36:50.336Z,19.52
2023-05-13T13:41:51.961Z,19.13
2023-05-13T13:46:53.558Z,19.30
2023-05-13T13:51:56.739Z,19.28
2023-05-13T13:56:58.827Z,19.04
2023-05-13T14:02:00.618Z,18.95
2023-05-13T14:07:02.621Z,18.91
2023-05-13T14:12:04.490Z,18.80
2023-05-13T14:17:06.211Z,18.70
2023-05-13T14:22:07.790Z,18.65
2023-05-13T14:27:09.430Z,18.61
2023-05-13T14:32:10.997Z,18.86
2023-05-13T14:37:12.622Z,18.63
2023-05-13T14:42:14.246Z,18.51
2023-05-13T14:47:15.922Z,18.62
2023-05-13T14:52:17.598Z,18.41
2023-05-13T14:57:19.290Z,18.60
2023-05-13T15:02:20.960Z,18.71
2023-05-13T15:07:22.661Z,18.62
2023-05-13T15:12:24.868Z,18.64
2023-05-13T15:17:26.783Z,18.57
2023-05-13T15:22:28.405Z,18.34
2023-05-13T15:27:29.972Z,18.18
2023-05-13T15:32:31.601Z,17.85
2023-05-13T15:37:33.245Z,17.69
2023-05-13T15:42:36.759Z,17.46
2023-05-13T15:47:38.465Z,17.22
2023-05-13T15:52:40.245Z,17.29
2023-05-13T15:57:41.847Z,17.39
2023-05-13T16:02:44.221Z,17.17
2023-05-13T16:07:46.464Z,17.18
2023-05-13T16:12:48.490Z,17.26
2023-05-13T16:17:50.208Z,17.07
2023-05-13T16:22:51.924Z,17.06
2023-05-13T16:27:54.843Z,17.04
2023-05-13T16:32:56.733Z,16.96
2023-05-13T16:37:58.321Z,16.90
2023-05-13T16:43:03.248Z,16.92
2023-05-13T16:48:06.405Z,16.92
2023-05-13T16:53:08.032Z,16.89
2023-05-13T16:58:09.591Z,16.82
2023-05-13T17:03:13.379Z,16.71
2023-05-13T17:08:17.101Z,16.65
2023-05-13T17:13:19.690Z,16.40
2023-05-13T17:18:21.284Z,16.25
2023-05-13T17:23:22.910Z,16.27
2023-05-13T17:28:24.709Z,16.36
2023-05-13T17:33:26.370Z,16.24
2023-05-13T17:38:27.960Z,16.21
2023-05-13T17:43:29.592Z,16.11
2023-05-13T17:48:33.090Z,15.95
2023-05-13T17:53:35.219Z,16.02
2023-05-13T17:58:37.032Z,16.00
2023-05-13T18:03:38.620Z,15.84
2023-05-13T18:08:40.173Z,15.85
2023-05-13T18:13:41.711Z,15.88
2023-05-13T18:18:43.369Z,15.99
2023-05-13T18:23:46.481Z,15.89
2023-05-13T18:28:48.089Z,15.95
2023-05-13T18:33:49.662Z,15.92
2023-05-13T18:38:51.270Z,16.03
2023-05-13T18:43:52.888Z,15.99
2023-05-13T18:48:54.432Z,15.95
2023-05-13T18:53:56.105Z,15.87
2023-05-13T18:58:57.968Z,15.88
2023-05-13T19:03:59.647Z,15.81
2023-05-13T19:09:01.305Z,15.93
2023-05-13T19:14:02.960Z,15.84
2023-05-13T19:19:04.720Z,15.78
2023-05-13T19:24:06.510Z,15.76
2023-05-13T19:29:08.244Z,15.75
2023-05-13T19:34:09.889Z,15.51
2023-05-13T19:39:11.490Z,15.76
2023-05-13T19:44:13.039Z,15.71
2023-05-13T19:49:14.718Z,15.64
2023-05-13T19:54:16.496Z,15.51
2023-05-13T19:59:18.158Z,15.30
2023-05-13T20:04:19.725Z,15.38
2023-05-13T20:09:21.470Z,15.32
2023-05-13T20:14:23.239Z,15.13
2023-05-13T20:19:24.814Z,15.07
2023-05-13T20:24:26.407Z,14.99
2023-05-13T20:29:33.787Z,14.92
2023-05-13T20:34:36.298Z,14.95
2023-05-13T20:39:37.890Z,14.91
2023-05-13T20:44:39.656Z,14.90
2023-05-13T20:49:43.803Z,14.96
2023-05-13T20:54:45.582Z,14.91
2023-05-13T20:59:47.220Z,14.83
2023-05-13T21:04:48.759Z,14.97
2023-05-13T21:09:50.323Z,14.89
2023-05-13T21:14:51.910Z,14.91
2023-05-13T21:19:53.508Z,14.90
2023-05-13T21:24:55.340Z,14.96
2023-05-13T21:29:57.160Z,14.95
2023-05-13T21:34:58.733Z,14.92
2023-05-13T21:40:00.540Z,14.85
2023-05-13T21:45:02.827Z,14.90
2023-05-13T21:50:06.885Z,14.88
2023-05-13T21:55:08.969Z,14.86
2023-05-13T22:00:15.119Z,14.84
2023-05-13T22:05:19.572Z,14.75
2023-05-13T22:10:21.327Z,14.77
2023-05-13T22:15:23.099Z,14.85
2023-05-13T22:20:25.187Z,14.74
2023-05-13T22:25:27.262Z,14.77
2023-05-13T22:30:28.984Z,14.88
2023-05-13T22:35:31.883Z,14.87
2023-05-13T22:40:33.542Z,14.81
2023-05-13T22:45:36.758Z,14.85
2023-05-13T22:50:38.466Z,14.87
2023-05-13T22:55:40.048Z,14.84
2023-05-13T23:00:41.675Z,14.86
2023-05-13T23:05:43.240Z,14.83
2023-05-13T23:10:44.914Z,14.88
2023-05-13T23:15:46.618Z,14.96
2023-05-13T23:20:55.806Z,14.80
2023-05-13T23:25:57.495Z,14.74
2023-05-13T23:30:59.223Z,14.87
2023-05-13T23:36:00.842Z,14.86
2023-05-13T23:41:02.472Z,14.77
2023-05-13T23:46:04.157Z,14.64
2023-05-13T23:51:06.168Z,14.55
2023-05-13T23:56:08.175Z,14.60
